Time;durP1;ratioP1;P1;durP2;ratioP2;P2;SDS_P1;SDS_P2;PMS_P1;PMS_P2;Temp;Humidity;BMP_temperature;BMP_pressure;BME280_temperature;BME280_humidity;BME280_pressure;Samples;Min_cycle;Max_cycle;Signal;HPM_P1;HPM_P2
2022/08/16 00:02:05;;;;;;;5.13;4.00;;;;;;;;;;5051967;28;20032;-44
2022/08/16 00:04:31;;;;;;;9.23;3.88;;;;;;;;;;5052009;28;20385;-44
2022/08/16 00:06:56;;;;;;;7.30;4.32;;;;;;;;;;5052273;28;20021;-45
2022/08/16 00:09:22;;;;;;;4.70;4.20;;;;;;;;;;5052279;28;20481;-43
2022/08/16 00:11:48;;;;;;;8.00;3.83;;;;;;;;;;5051972;28;20532;-46
2022/08/16 00:14:19;;;;;;;5.00;3.70;;;;;;;;;;5051989;28;20049;-46
2022/08/16 00:16:44;;;;;;;5.53;4.22;;;;;;;;;;5051889;28;20491;-43
2022/08/16 00:19:11;;;;;;;5.63;4.00;;;;;;;;;;5051917;28;20029;-44
2022/08/16 00:21:37;;;;;;;8.50;4.38;;;;;;;;;;5051854;28;20485;-47
2022/08/16 00:24:03;;;;;;;11.00;4.15;;;;;;;;;;5053001;28;20021;-44
2022/08/16 00:26:28;;;;;;;7.25;4.10;;;;;;;;;;5055687;28;20029;-43
2022/08/16 00:28:54;;;;;;;4.65;4.07;;;;;;;;;;5055722;28;20039;-44
2022/08/16 00:31:19;;;;;;;4.43;4.03;;;;;;;;;;5055853;28;20021;-43
2022/08/16 00:33:45;;;;;;;6.85;4.05;;;;;;;;;;5055494;28;20020;-43
2022/08/16 00:36:10;;;;;;;7.18;4.13;;;;;;;;;;5055510;28;20024;-43
2022/08/16 00:38:36;;;;;;;6.63;4.65;;;;;;;;;;5055506;28;20028;-43
2022/08/16 00:41:01;;;;;;;5.90;4.43;;;;;;;;;;5055469;28;20033;-43
2022/08/16 00:43:34;;;;;;;5.10;4.43;;;;;;;;;;5055708;28;20049;-46
2022/08/16 00:46:19;;;;;;;5.07;4.50;;;;;;;;;;5055450;28;20484;-43
2022/08/16 00:48:45;;;;;;;7.65;4.40;;;;;;;;;;5055371;28;20067;-43
2022/08/16 00:51:14;;;;;;;9.07;4.53;;;;;;;;;;5055197;28;20074;-43
2022/08/16 00:53:40;;;;;;;6.32;4.63;;;;;;;;;;5037532;28;20036;-43
2022/08/16 00:56:10;;;;;;;10.20;4.28;;;;;;;;;;5055212;28;20032;-44
2022/08/16 00:58:40;;;;;;;5.40;4.82;;;;;;;;;;5055106;28;20021;-44
2022/08/16 01:01:07;;;;;;;6.18;4.53;;;;;;;;;;5055028;28;20029;-45
2022/08/16 01:03:34;;;;;;;8.60;4.70;;;;;;;;;;5055135;28;20427;-46
2022/08/16 01:06:00;;;;;;;6.63;4.85;;;;;;;;;;5055372;28;20475;-43
2022/08/16 01:08:26;;;;;;;6.72;5.82;;;;;;;;;;5054986;28;20074;-44
2022/08/16 01:10:54;;;;;;;6.32;5.18;;;;;;;;;;5054974;28;20068;-45
2022/08/16 01:13:23;;;;;;;6.97;5.03;;;;;;;;;;5055194;28;20029;-43
2022/08/16 01:15:56;;;;;;;9.73;4.60;;;;;;;;;;5054961;28;20456;-43
2022/08/16 01:18:25;;;;;;;4.95;4.47;;;;;;;;;;5054777;28;20021;-46
2022/08/16 01:21:00;;;;;;;8.47;4.67;;;;;;;;;;5054760;28;20468;-46
2022/08/16 01:23:37;;;;;;;8.23;5.13;;;;;;;;;;5054973;28;20280;-44
2022/08/16 01:26:04;;;;;;;7.82;4.93;;;;;;;;;;5036927;28;20029;-43
2022/08/16 01:28:29;;;;;;;7.05;5.38;;;;;;;;;;5054528;28;20032;-45
2022/08/16 01:30:57;;;;;;;8.43;5.10;;;;;;;;;;5054487;28;20021;-43
2022/08/16 01:33:23;;;;;;;5.35;4.85;;;;;;;;;;5054421;28;20485;-44
2022/08/16 01:35:51;;;;;;;6.03;5.18;;;;;;;;;;5054207;28;20041;-43
2022/08/16 01:38:28;;;;;;;10.02;5.55;;;;;;;;;;5054397;28;20041;-45
2022/08/16 01:40:57;;;;;;;8.63;5.30;;;;;;;;;;5054361;28;20025;-45
2022/08/16 01:43:23;;;;;;;7.25;5.60;;;;;;;;;;5054572;28;20075;-44
2022/08/16 01:45:54;;;;;;;11.25;5.60;;;;;;;;;;5054484;28;20078;-43
2022/08/16 01:48:22;;;;;;;6.05;5.43;;;;;;;;;;5054414;28;20021;-43
2022/08/16 01:50:50;;;;;;;8.45;5.43;;;;;;;;;;5054130;28;20032;-43
2022/08/16 01:53:16;;;;;;;9.73;5.40;;;;;;;;;;5054348;28;20021;-44
2022/08/16 01:55:44;;;;;;;6.05;5.22;;;;;;;;;;5054353;28;20163;-44
2022/08/16 01:58:11;;;;;;;8.10;6.00;;;;;;;;;;5054198;28;20028;-49
2022/08/16 02:00:36;;;;;;;6.88;5.63;;;;;;;;;;5053894;28;20032;-47
2022/08/16 02:03:02;;;;;;;8.23;5.05;;;;;;;;;;5053971;28;20021;-44
2022/08/16 02:05:27;;;;;;;10.40;5.68;;;;;;;;;;5053849;28;20025;-43
2022/08/16 02:07:53;;;;;;;6.78;5.65;;;;;;;;;;5053771;28;20025;-45
2022/08/16 02:10:19;;;;;;;10.57;5.68;;;;;;;;;;5053744;28;20025;-42
2022/08/16 02:12:44;;;;;;;8.38;5.68;;;;;;;;;;5053966;28;20025;-43
2022/08/16 02:15:12;;;;;;;9.93;5.63;;;;;;;;;;5053956;28;20496;-47
2022/08/16 02:17:37;;;;;;;8.48;6.15;;;;;;;;;;5053891;28;20021;-43
2022/08/16 02:20:05;;;;;;;8.48;6.10;;;;;;;;;;5053678;28;20021;-44
2022/08/16 02:22:30;;;;;;;8.60;6.00;;;;;;;;;;5053446;28;20192;-45
2022/08/16 02:24:56;;;;;;;8.13;5.97;;;;;;;;;;5053451;28;20056;-44
2022/08/16 02:27:21;;;;;;;8.73;5.88;;;;;;;;;;5053756;28;20070;-45
2022/08/16 02:29:46;;;;;;;11.73;6.38;;;;;;;;;;5053482;28;20028;-45
2022/08/16 02:32:14;;;;;;;11.70;5.63;;;;;;;;;;5053268;28;20162;-45
2022/08/16 02:34:39;;;;;;;8.35;5.80;;;;;;;;;;5053179;28;20508;-46
2022/08/16 02:37:05;;;;;;;9.35;5.70;;;;;;;;;;5053518;28;20063;-44
2022/08/16 02:39:30;;;;;;;7.90;5.78;;;;;;;;;;5053551;28;20033;-44
2022/08/16 02:41:56;;;;;;;9.20;6.18;;;;;;;;;;5053139;28;20472;-47
2022/08/16 02:44:22;;;;;;;10.30;6.57;;;;;;;;;;5053181;28;20043;-45
2022/08/16 02:46:48;;;;;;;8.27;6.20;;;;;;;;;;5052620;28;20036;-44
2022/08/16 02:49:13;;;;;;;6.72;6.00;;;;;;;;;;5053117;28;20029;-47
2022/08/16 02:51:40;;;;;;;10.10;6.10;;;;;;;;;;5053249;28;20108;-43
2022/08/16 02:54:07;;;;;;;14.07;6.30;;;;;;;;;;5053017;28;20029;-44
2022/08/16 02:56:33;;;;;;;6.72;5.50;;;;;;;;;;5052890;28;20050;-44
2022/08/16 02:58:58;;;;;;;8.32;5.68;;;;;;;;;;5053126;28;20379;-45
2022/08/16 03:01:27;;;;;;;6.00;5.20;;;;;;;;;;5052770;28;20072;-45
2022/08/16 03:03:54;;;;;;;7.43;5.22;;;;;;;;;;5052845;28;20021;-44
2022/08/16 03:06:22;;;;;;;6.60;5.57;;;;;;;;;;5052720;28;20506;-45
2022/08/16 03:08:49;;;;;;;7.68;5.60;;;;;;;;;;5053043;28;20437;-44
2022/08/16 03:11:16;;;;;;;7.88;5.88;;;;;;;;;;5052554;28;20032;-45
2022/08/16 03:13:43;;;;;;;8.38;5.30;;;;;;;;;;5052909;28;20025;-46
2022/08/16 03:16:09;;;;;;;7.05;5.88;;;;;;;;;;5052814;28;20086;-45
2022/08/16 03:18:34;;;;;;;8.55;6.45;;;;;;;;;;5052871;28;20104;-43
2022/08/16 03:21:00;;;;;;;11.07;6.65;;;;;;;;;;5052745;28;20495;-49
2022/08/16 03:23:26;;;;;;;10.38;6.18;;;;;;;;;;5052507;28;20432;-43
2022/08/16 03:25:52;;;;;;;8.15;6.30;;;;;;;;;;5052787;28;20024;-47
2022/08/16 03:28:19;;;;;;;7.47;6.13;;;;;;;;;;5052747;28;20104;-47
2022/08/16 03:30:45;;;;;;;14.00;6.90;;;;;;;;;;5052356;28;20515;-44
2022/08/16 03:33:10;;;;;;;8.60;6.88;;;;;;;;;;5052596;28;20116;-45
2022/08/16 03:35:37;;;;;;;12.32;6.95;;;;;;;;;;5052188;28;20075;-43
2022/08/16 03:38:06;;;;;;;12.27;7.10;;;;;;;;;;5052366;28;20108;-43
2022/08/16 03:40:33;;;;;;;12.18;7.05;;;;;;;;;;5052271;28;20023;-44
2022/08/16 03:42:59;;;;;;;10.98;7.10;;;;;;;;;;5052485;28;20427;-44
2022/08/16 03:45:25;;;;;;;9.32;6.32;;;;;;;;;;5052518;28;20048;-43
2022/08/16 03:47:51;;;;;;;9.93;6.30;;;;;;;;;;5052228;28;20432;-47
2022/08/16 03:50:17;;;;;;;11.73;7.13;;;;;;;;;;5052455;28;20021;-43
2022/08/16 03:52:42;;;;;;;10.77;7.57;;;;;;;;;;5052156;28;20112;-43
2022/08/16 03:55:10;;;;;;;12.73;7.13;;;;;;;;;;5052159;28;20035;-43
2022/08/16 03:57:36;;;;;;;14.68;7.55;;;;;;;;;;5052206;28;20021;-45
2022/08/16 04:00:18;;;;;;;8.73;6.68;;;;;;;;;;5054956;28;20029;-47
2022/08/16 04:02:44;;;;;;;10.73;6.85;;;;;;;;;;5056214;28;20102;-44
2022/08/16 04:05:12;;;;;;;9.02;6.55;;;;;;;;;;5056459;28;20524;-44
2022/08/16 04:07:38;;;;;;;12.20;6.82;;;;;;;;;;5056128;28;20056;-43
2022/08/16 04:10:08;;;;;;;13.40;6.53;;;;;;;;;;5056016;28;20533;-43
2022/08/16 04:12:35;;;;;;;15.25;6.53;;;;;;;;;;5056232;28;20057;-44
2022/08/16 04:15:03;;;;;;;14.32;6.78;;;;;;;;;;5056268;28;20044;-44
2022/08/16 04:17:29;;;;;;;16.70;7.15;;;;;;;;;;5056149;28;20024;-45
2022/08/16 04:19:56;;;;;;;12.55;6.68;;;;;;;;;;5056144;28;20055;-43
2022/08/16 04:22:21;;;;;;;11.77;6.30;;;;;;;;;;5038180;28;20025;-48
2022/08/16 04:24:47;;;;;;;16.95;7.00;;;;;;;;;;5056082;28;20112;-43
2022/08/16 04:27:13;;;;;;;18.90;7.45;;;;;;;;;;5055738;28;20108;-45
2022/08/16 04:29:39;;;;;;;20.92;7.22;;;;;;;;;;5055989;28;20033;-45
2022/08/16 04:32:04;;;;;;;12.35;6.43;;;;;;;;;;5055634;28;20025;-44
2022/08/16 04:34:32;;;;;;;14.43;7.20;;;;;;;;;;5055226;28;20045;-46
2022/08/16 04:36:58;;;;;;;12.65;6.60;;;;;;;;;;5054257;28;20107;-44
2022/08/16 04:39:29;;;;;;;19.40;7.03;;;;;;;;;;5054478;28;20104;-43
2022/08/16 04:41:58;;;;;;;10.38;6.82;;;;;;;;;;5054034;28;20162;-43
2022/08/16 04:44:23;;;;;;;13.65;6.97;;;;;;;;;;5054407;28;20469;-43
2022/08/16 04:46:49;;;;;;;9.68;6.63;;;;;;;;;;5054114;28;20074;-43
2022/08/16 04:49:16;;;;;;;19.63;6.97;;;;;;;;;;5036331;28;20017;-47
2022/08/16 04:51:42;;;;;;;17.33;6.97;;;;;;;;;;5054006;28;20031;-42
2022/08/16 04:54:08;;;;;;;29.45;6.63;;;;;;;;;;5054269;28;20067;-44
2022/08/16 04:56:35;;;;;;;26.58;6.82;;;;;;;;;;5054013;28;20017;-47
2022/08/16 04:59:01;;;;;;;20.73;6.32;;;;;;;;;;5054128;28;20076;-43
2022/08/16 05:01:27;;;;;;;12.48;5.35;;;;;;;;;;5053848;28;20024;-43
2022/08/16 05:03:52;;;;;;;9.30;5.20;;;;;;;;;;5053756;28;20171;-47
2022/08/16 05:06:18;;;;;;;11.07;5.00;;;;;;;;;;5053687;28;20032;-48
2022/08/16 05:08:44;;;;;;;7.43;4.40;;;;;;;;;;5054057;28;20111;-44
2022/08/16 05:11:12;;;;;;;20.27;4.72;;;;;;;;;;5053601;28;20481;-45
2022/08/16 05:13:42;;;;;;;13.27;4.25;;;;;;;;;;5053701;28;20473;-49
2022/08/16 05:16:14;;;;;;;11.73;4.30;;;;;;;;;;5053746;28;20121;-47
2022/08/16 05:18:39;;;;;;;12.57;4.10;;;;;;;;;;5053186;28;20041;-47
2022/08/16 05:21:05;;;;;;;12.70;4.60;;;;;;;;;;5053046;28;20387;-46
2022/08/16 05:23:30;;;;;;;11.18;4.10;;;;;;;;;;5051785;28;20079;-45
2022/08/16 05:25:57;;;;;;;10.02;4.10;;;;;;;;;;5052701;28;20035;-43
2022/08/16 05:28:22;;;;;;;12.05;4.30;;;;;;;;;;5053727;28;20083;-44
2022/08/16 05:30:50;;;;;;;11.27;4.43;;;;;;;;;;5053437;28;20456;-44
2022/08/16 05:33:15;;;;;;;12.05;4.07;;;;;;;;;;5053326;28;20021;-45
2022/08/16 05:35:41;;;;;;;11.32;4.30;;;;;;;;;;5010876;28;1239382;-45
2022/08/16 05:38:06;;;;;;;12.43;4.10;;;;;;;;;;5054620;28;20506;-44
2022/08/16 05:40:32;;;;;;;9.45;3.80;;;;;;;;;;5053609;28;20025;-46
2022/08/16 05:42:57;;;;;;;6.47;4.05;;;;;;;;;;5053181;28;20033;-47
2022/08/16 05:45:22;;;;;;;11.10;3.80;;;;;;;;;;5054173;28;20037;-45
2022/08/16 05:47:48;;;;;;;5.93;3.40;;;;;;;;;;5054488;28;20029;-49
2022/08/16 05:50:13;;;;;;;4.18;3.20;;;;;;;;;;5054134;28;20032;-45
2022/08/16 05:52:39;;;;;;;5.15;3.10;;;;;;;;;;5054309;28;20040;-47
2022/08/16 05:55:05;;;;;;;5.28;2.92;;;;;;;;;;5054364;28;20021;-50
2022/08/16 05:57:31;;;;;;;4.35;2.95;;;;;;;;;;5053952;28;20079;-45
2022/08/16 05:59:56;;;;;;;3.67;2.88;;;;;;;;;;5054184;28;20037;-45
2022/08/16 06:02:26;;;;;;;11.70;3.65;;;;;;;;;;5054157;28;20028;-44
2022/08/16 06:04:51;;;;;;;5.90;4.35;;;;;;;;;;5053854;28;20025;-46
2022/08/16 06:07:17;;;;;;;22.67;4.70;;;;;;;;;;5054092;28;20029;-48
2022/08/16 06:09:43;;;;;;;11.00;2.90;;;;;;;;;;5054107;28;20028;-47
2022/08/16 06:12:09;;;;;;;5.93;3.88;;;;;;;;;;5053729;28;20091;-45
2022/08/16 06:14:35;;;;;;;38.08;4.38;;;;;;;;;;5053964;28;20025;-48
2022/08/16 06:17:00;;;;;;;23.30;3.50;;;;;;;;;;5053749;28;20099;-50
2022/08/16 06:19:26;;;;;;;35.92;5.22;;;;;;;;;;5053621;28;20025;-48
2022/08/16 06:21:51;;;;;;;30.17;4.75;;;;;;;;;;5052771;28;20068;-50
2022/08/16 06:24:16;;;;;;;28.20;3.97;;;;;;;;;;5053503;28;20100;-47
2022/08/16 06:26:42;;;;;;;22.75;3.97;;;;;;;;;;5053534;28;20024;-49
2022/08/16 06:29:08;;;;;;;21.92;3.75;;;;;;;;;;5035786;28;20431;-47
2022/08/16 06:31:33;;;;;;;18.10;3.67;;;;;;;;;;5053153;28;20039;-46
2022/08/16 06:33:59;;;;;;;24.95;3.63;;;;;;;;;;5053009;28;20092;-51
2022/08/16 06:36:24;;;;;;;15.70;3.88;;;;;;;;;;5053306;28;20111;-49
2022/08/16 06:38:50;;;;;;;13.45;3.40;;;;;;;;;;5053288;28;20025;-47
2022/08/16 06:41:16;;;;;;;8.93;3.00;;;;;;;;;;5053111;28;20028;-45
2022/08/16 06:43:42;;;;;;;7.95;3.50;;;;;;;;;;5053296;28;20029;-49
2022/08/16 06:46:21;;;;;;;17.02;3.80;;;;;;;;;;5053168;28;20025;-51
2022/08/16 06:48:47;;;;;;;4.13;2.70;;;;;;;;;;5047865;28;20064;-44
2022/08/16 06:51:12;;;;;;;6.20;2.40;;;;;;;;;;5053245;28;20059;-49
2022/08/16 06:53:38;;;;;;;4.20;2.92;;;;;;;;;;5052797;28;20056;-46
2022/08/16 06:56:06;;;;;;;9.52;2.72;;;;;;;;;;5052344;28;20029;-52
2022/08/16 06:58:33;;;;;;;5.90;2.95;;;;;;;;;;5052208;28;20090;-51
2022/08/16 07:01:02;;;;;;;6.30;2.75;;;;;;;;;;5052491;28;20061;-50
2022/08/16 07:03:29;;;;;;;6.18;2.50;;;;;;;;;;5052133;28;20013;-46
2022/08/16 07:05:55;;;;;;;4.38;2.45;;;;;;;;;;5052541;28;20092;-51
2022/08/16 07:08:22;;;;;;;9.57;2.75;;;;;;;;;;5052225;28;20020;-48
2022/08/16 07:10:49;;;;;;;5.00;2.80;;;;;;;;;;5052238;28;20028;-50
2022/08/16 07:13:15;;;;;;;7.47;3.10;;;;;;;;;;5052916;28;20116;-50
2022/08/16 07:15:41;;;;;;;6.55;2.83;;;;;;;;;;5052509;28;20582;-48
2022/08/16 07:18:06;;;;;;;4.18;2.88;;;;;;;;;;5052444;28;20025;-51
2022/08/16 07:20:32;;;;;;;3.85;2.75;;;;;;;;;;5034671;28;20025;-51
2022/08/16 07:22:58;;;;;;;3.90;2.70;;;;;;;;;;5052244;28;20110;-49
2022/08/16 07:25:23;;;;;;;3.20;2.70;;;;;;;;;;5049373;28;20525;-52
2022/08/16 07:27:49;;;;;;;4.68;2.75;;;;;;;;;;5049485;28;20108;-51
2022/08/16 07:30:21;;;;;;;3.75;2.80;;;;;;;;;;5049562;28;20124;-50
2022/08/16 07:32:49;;;;;;;4.07;2.88;;;;;;;;;;5046857;28;20036;-51
2022/08/16 07:35:15;;;;;;;5.73;2.87;;;;;;;;;;5049422;28;20501;-49
2022/08/16 07:37:41;;;;;;;4.75;2.78;;;;;;;;;;5050954;28;20267;-53
2022/08/16 07:40:07;;;;;;;4.35;3.03;;;;;;;;;;5050667;28;20525;-49
2022/08/16 07:42:32;;;;;;;4.22;3.35;;;;;;;;;;5050571;28;20036;-46
2022/08/16 07:44:58;;;;;;;24.45;4.10;;;;;;;;;;5050355;28;20032;-48
2022/08/16 07:47:24;;;;;;;9.07;3.00;;;;;;;;;;5050680;28;20013;-54
2022/08/16 07:49:49;;;;;;;7.80;2.97;;;;;;;;;;5050799;28;20029;-51
2022/08/16 07:52:15;;;;;;;127.82;9.90;;;;;;;;;;5050626;28;20083;-50
2022/08/16 07:54:40;;;;;;;4.65;3.15;;;;;;;;;;5050559;28;20025;-49
2022/08/16 07:57:05;;;;;;;17.17;3.25;;;;;;;;;;5050348;28;20091;-54
2022/08/16 07:59:31;;;;;;;6.88;3.40;;;;;;;;;;5049495;28;20497;-56
2022/08/16 08:01:57;;;;;;;10.38;3.50;;;;;;;;;;5050683;28;20032;-54
2022/08/16 08:04:22;;;;;;;6.07;2.70;;;;;;;;;;5050776;28;20025;-53
2022/08/16 08:06:48;;;;;;;10.05;2.92;;;;;;;;;;5050494;28;20037;-52
2022/08/16 08:09:13;;;;;;;5.72;2.85;;;;;;;;;;5049986;28;20564;-50
2022/08/16 08:11:39;;;;;;;3.22;2.83;;;;;;;;;;5050722;28;20032;-50
2022/08/16 08:14:05;;;;;;;7.05;2.83;;;;;;;;;;5050659;28;20086;-53
2022/08/16 08:16:32;;;;;;;4.35;2.70;;;;;;;;;;5050161;28;20025;-48
2022/08/16 08:18:59;;;;;;;3.78;2.80;;;;;;;;;;5050229;28;20025;-50
2022/08/16 08:21:25;;;;;;;10.43;4.82;;;;;;;;;;5050146;28;20037;-45
2022/08/16 08:23:50;;;;;;;4.28;3.03;;;;;;;;;;5050348;28;20032;-50
2022/08/16 08:26:16;;;;;;;8.00;2.88;;;;;;;;;;5050530;28;20093;-51
2022/08/16 08:28:42;;;;;;;7.35;2.80;;;;;;;;;;5050389;28;20033;-49
2022/08/16 08:31:08;;;;;;;5.63;2.70;;;;;;;;;;5050607;28;20515;-53
2022/08/16 08:33:35;;;;;;;18.45;4.18;;;;;;;;;;5050034;28;20036;-49
2022/08/16 08:36:06;;;;;;;11.93;4.20;;;;;;;;;;5049821;28;20067;-52
2022/08/16 08:38:33;;;;;;;5.13;2.80;;;;;;;;;;5050168;28;20047;-48
2022/08/16 08:40:59;;;;;;;7.03;3.05;;;;;;;;;;5050339;28;20055;-49
2022/08/16 08:43:24;;;;;;;11.68;3.30;;;;;;;;;;5050049;28;20384;-48
2022/08/16 08:45:54;;;;;;;3.65;2.90;;;;;;;;;;5052237;28;20110;-51
2022/08/16 08:48:21;;;;;;;6.03;3.30;;;;;;;;;;5053675;28;20033;-52
2022/08/16 08:50:48;;;;;;;8.53;2.93;;;;;;;;;;5054081;28;20025;-48
2022/08/16 08:53:14;;;;;;;6.93;2.70;;;;;;;;;;5053550;28;20059;-53
2022/08/16 08:55:39;;;;;;;3.10;2.67;;;;;;;;;;5053542;28;20025;-46
2022/08/16 08:58:05;;;;;;;8.38;3.08;;;;;;;;;;5053605;28;20539;-48
2022/08/16 09:00:30;;;;;;;5.15;3.15;;;;;;;;;;5053476;28;20033;-50
2022/08/16 09:02:56;;;;;;;4.35;2.83;;;;;;;;;;5053282;28;20124;-48
2022/08/16 09:05:26;;;;;;;14.23;4.85;;;;;;;;;;5053039;28;20025;-49
2022/08/16 09:07:53;;;;;;;7.57;2.80;;;;;;;;;;5053485;28;20472;-46
2022/08/16 09:10:19;;;;;;;4.97;2.60;;;;;;;;;;5053604;28;20033;-48
2022/08/16 09:12:46;;;;;;;6.07;3.15;;;;;;;;;;5053612;28;20039;-48
2022/08/16 09:15:14;;;;;;;8.30;3.03;;;;;;;;;;5053352;28;20425;-52
2022/08/16 09:17:41;;;;;;;4.40;2.75;;;;;;;;;;5053316;28;20404;-47
2022/08/16 09:20:13;;;;;;;6.82;2.90;;;;;;;;;;5053189;28;20078;-54
2022/08/16 09:22:39;;;;;;;4.72;2.50;;;;;;;;;;5053305;28;20555;-50
2022/08/16 09:25:06;;;;;;;3.13;2.53;;;;;;;;;;5053008;28;20032;-49
2022/08/16 09:27:32;;;;;;;8.80;2.83;;;;;;;;;;5052964;28;20021;-50
2022/08/16 09:29:58;;;;;;;6.25;2.60;;;;;;;;;;5052977;28;20481;-49
2022/08/16 09:32:23;;;;;;;4.90;2.50;;;;;;;;;;5053097;28;20025;-53
2022/08/16 09:34:50;;;;;;;5.35;2.90;;;;;;;;;;5052764;28;20393;-53
2022/08/16 09:37:15;;;;;;;2.47;2.28;;;;;;;;;;5052706;28;20098;-53
2022/08/16 09:39:43;;;;;;;4.95;2.45;;;;;;;;;;5052613;28;20025;-47
2022/08/16 09:42:09;;;;;;;2.50;2.30;;;;;;;;;;5052621;28;20048;-51
2022/08/16 09:44:35;;;;;;;4.45;2.70;;;;;;;;;;5052684;28;20037;-50
2022/08/16 09:47:01;;;;;;;6.57;2.90;;;;;;;;;;5052624;28;20028;-51
2022/08/16 09:49:26;;;;;;;5.57;2.75;;;;;;;;;;5052991;28;20029;-47
2022/08/16 09:51:53;;;;;;;2.60;2.40;;;;;;;;;;5035094;28;20021;-48
2022/08/16 09:54:21;;;;;;;3.97;2.80;;;;;;;;;;5052492;28;20467;-46
2022/08/16 09:56:47;;;;;;;2.70;2.50;;;;;;;;;;5051460;28;20025;-51
2022/08/16 09:59:14;;;;;;;6.90;2.40;;;;;;;;;;5052309;28;20032;-49
2022/08/16 10:01:41;;;;;;;9.50;2.58;;;;;;;;;;5052623;28;20068;-49
2022/08/16 10:04:07;;;;;;;5.45;2.40;;;;;;;;;;5052423;28;20108;-47
2022/08/16 10:06:33;;;;;;;29.08;3.40;;;;;;;;;;5052545;28;20025;-50
2022/08/16 10:09:00;;;;;;;3.22;2.63;;;;;;;;;;5052273;28;20662;-48
2022/08/16 10:14:09;;;;;;;5.45;2.60;;;;;;;;;;5052454;28;20028;-54
2022/08/16 10:16:36;;;;;;;7.50;2.15;;;;;;;;;;5052347;28;20035;-52
2022/08/16 10:19:01;;;;;;;7.13;2.67;;;;;;;;;;5052463;28;20021;-44
2022/08/16 10:21:27;;;;;;;3.78;2.20;;;;;;;;;;5051805;28;20024;-49
2022/08/16 10:23:53;;;;;;;10.10;2.55;;;;;;;;;;5052301;28;20029;-48
2022/08/16 10:26:20;;;;;;;3.55;2.40;;;;;;;;;;5051787;28;20442;-51
2022/08/16 10:28:46;;;;;;;2.65;2.30;;;;;;;;;;5034167;28;20021;-48
2022/08/16 10:31:12;;;;;;;2.75;2.30;;;;;;;;;;5051767;28;20086;-44
2022/08/16 10:33:38;;;;;;;3.17;1.98;;;;;;;;;;5051769;28;20107;-45
2022/08/16 10:36:07;;;;;;;5.32;2.13;;;;;;;;;;5051058;28;20049;-49
2022/08/16 10:38:36;;;;;;;2.00;1.75;;;;;;;;;;5052013;28;20039;-48
2022/08/16 10:41:03;;;;;;;7.40;2.38;;;;;;;;;;5051705;28;20039;-46
2022/08/16 10:43:28;;;;;;;3.05;2.20;;;;;;;;;;5051755;28;20032;-49
2022/08/16 10:45:54;;;;;;;4.35;1.95;;;;;;;;;;5051886;28;20037;-52
2022/08/16 10:48:20;;;;;;;3.17;2.10;;;;;;;;;;5051748;28;20098;-46
2022/08/16 10:50:46;;;;;;;5.45;2.00;;;;;;;;;;5033608;28;20431;-51
2022/08/16 10:53:12;;;;;;;4.22;2.67;;;;;;;;;;5051102;28;20028;-48
2022/08/16 10:55:40;;;;;;;2.97;2.10;;;;;;;;;;5051318;28;20032;-51
2022/08/16 10:58:08;;;;;;;3.17;2.10;;;;;;;;;;5051532;28;20056;-50
2022/08/16 11:00:37;;;;;;;3.75;2.10;;;;;;;;;;5051742;28;20389;-49
2022/08/16 11:03:03;;;;;;;5.82;2.28;;;;;;;;;;5052009;28;20485;-49
2022/08/16 11:05:32;;;;;;;2.60;2.10;;;;;;;;;;5051563;28;20074;-48
2022/08/16 11:07:58;;;;;;;;;;;;;;;;;;5051342;28;20472;-53
2022/08/16 11:10:28;;;;;;;3.50;2.10;;;;;;;;;;5033168;28;20001;-53
2022/08/16 11:12:53;;;;;;;9.02;2.50;;;;;;;;;;5051311;28;20389;-46
2022/08/16 11:15:19;;;;;;;4.60;2.05;;;;;;;;;;5051803;28;20016;-49
2022/08/16 11:17:46;;;;;;;3.70;2.33;;;;;;;;;;5033235;28;20158;-45
2022/08/16 11:20:12;;;;;;;2.72;2.20;;;;;;;;;;5051141;28;20142;-50
2022/08/16 11:22:41;;;;;;;4.30;2.20;;;;;;;;;;5050908;28;20087;-48
2022/08/16 11:25:08;;;;;;;4.68;2.30;;;;;;;;;;5050883;28;20040;-50
2022/08/16 11:27:34;;;;;;;4.18;2.72;;;;;;;;;;5050726;28;20032;-45
2022/08/16 11:29:59;;;;;;;5.93;2.78;;;;;;;;;;5050951;28;20029;-47
2022/08/16 11:32:27;;;;;;;4.80;2.20;;;;;;;;;;5050743;28;20036;-52
2022/08/16 11:34:55;;;;;;;8.68;2.63;;;;;;;;;;5050815;28;20382;-47
2022/08/16 11:37:21;;;;;;;7.70;2.30;;;;;;;;;;5050621;28;20025;-48
2022/08/16 11:39:47;;;;;;;6.43;2.47;;;;;;;;;;5050715;28;20027;-51
2022/08/16 11:42:14;;;;;;;7.32;2.42;;;;;;;;;;5050553;28;20027;-47
2022/08/16 11:44:39;;;;;;;4.65;2.65;;;;;;;;;;5050945;28;20029;-49
2022/08/16 11:47:05;;;;;;;3.47;2.25;;;;;;;;;;5050547;28;20069;-53
2022/08/16 11:49:31;;;;;;;9.85;2.85;;;;;;;;;;5050972;28;20033;-48
2022/08/16 11:51:57;;;;;;;4.38;2.53;;;;;;;;;;5050658;28;20021;-45
2022/08/16 11:54:22;;;;;;;2.97;2.58;;;;;;;;;;5050839;28;20044;-52
2022/08/16 11:56:51;;;;;;;8.55;2.85;;;;;;;;;;5050938;28;20036;-46
2022/08/16 11:59:18;;;;;;;2.13;1.92;;;;;;;;;;5050828;28;20032;-52
2022/08/16 12:01:44;;;;;;;7.28;2.60;;;;;;;;;;5050334;28;20067;-48
2022/08/16 12:04:10;;;;;;;5.18;2.20;;;;;;;;;;5050729;28;20025;-47
2022/08/16 12:06:36;;;;;;;3.53;2.10;;;;;;;;;;5050451;28;20112;-42
2022/08/16 12:09:04;;;;;;;5.35;2.03;;;;;;;;;;5050613;28;20104;-46
2022/08/16 12:11:30;;;;;;;6.05;2.42;;;;;;;;;;5050442;28;20025;-43
2022/08/16 12:13:56;;;;;;;3.83;2.40;;;;;;;;;;5050393;28;20124;-46
2022/08/16 12:16:21;;;;;;;5.00;2.20;;;;;;;;;;5050209;28;20116;-48
2022/08/16 12:18:47;;;;;;;2.88;2.17;;;;;;;;;;5050518;28;20041;-46
2022/08/16 12:21:13;;;;;;;8.57;2.40;;;;;;;;;;5053160;28;20021;-48
2022/08/16 12:23:38;;;;;;;3.72;2.30;;;;;;;;;;5054505;28;20659;-49
2022/08/16 12:26:05;;;;;;;3.97;2.10;;;;;;;;;;5054205;28;20635;-49
2022/08/16 12:28:31;;;;;;;5.93;2.40;;;;;;;;;;5054431;28;20063;-50
2022/08/16 12:30:57;;;;;;;6.88;2.20;;;;;;;;;;5054003;28;20052;-47
2022/08/16 12:33:23;;;;;;;3.70;2.13;;;;;;;;;;5054206;28;20501;-49
2022/08/16 12:35:48;;;;;;;2.97;2.38;;;;;;;;;;5053748;28;20447;-49
2022/08/16 12:38:15;;;;;;;5.88;2.50;;;;;;;;;;5053969;28;20056;-48
2022/08/16 12:40:43;;;;;;;2.72;2.40;;;;;;;;;;5054173;28;20111;-45
2022/08/16 12:43:12;;;;;;;2.50;2.30;;;;;;;;;;5053968;28;20036;-46
2022/08/16 12:45:49;;;;;;;9.80;2.53;;;;;;;;;;5054191;28;20025;-46
2022/08/16 12:51:09;;;;;;;4.30;2.10;;;;;;;;;;5053750;28;20124;-51
2022/08/16 12:53:35;;;;;;;3.88;2.50;;;;;;;;;;5053412;28;20132;-53
2022/08/16 12:56:01;;;;;;;2.53;2.20;;;;;;;;;;5053835;28;20121;-53
2022/08/16 12:58:27;;;;;;;6.70;2.00;;;;;;;;;;5053689;28;20031;-51
2022/08/16 13:00:53;;;;;;;4.75;2.50;;;;;;;;;;5053439;28;20472;-46
2022/08/16 13:03:18;;;;;;;9.27;2.95;;;;;;;;;;5053394;28;20037;-48
2022/08/16 13:05:44;;;;;;;3.92;2.20;;;;;;;;;;5053147;28;20047;-47
2022/08/16 13:08:14;;;;;;;4.50;2.33;;;;;;;;;;5035431;28;20057;-47
2022/08/16 13:10:44;;;;;;;6.63;2.60;;;;;;;;;;5053443;28;20100;-47
2022/08/16 13:13:10;;;;;;;6.82;2.40;;;;;;;;;;5053173;28;20055;-47
2022/08/16 13:15:36;;;;;;;5.55;2.20;;;;;;;;;;5053250;28;20025;-45
2022/08/16 13:18:03;;;;;;;6.05;2.30;;;;;;;;;;5053229;28;20025;-47
2022/08/16 13:20:30;;;;;;;15.55;3.15;;;;;;;;;;5053000;28;20560;-44
2022/08/16 13:22:58;;;;;;;4.35;2.40;;;;;;;;;;5053194;28;20071;-49
2022/08/16 13:25:25;;;;;;;5.30;2.10;;;;;;;;;;5053180;28;20036;-52
2022/08/16 13:27:52;;;;;;;7.32;2.33;;;;;;;;;;5053093;28;20032;-48
2022/08/16 13:30:19;;;;;;;5.38;2.55;;;;;;;;;;5052801;28;20032;-49
2022/08/16 13:32:45;;;;;;;3.53;2.28;;;;;;;;;;5053053;28;20056;-48
2022/08/16 13:35:11;;;;;;;2.35;1.95;;;;;;;;;;5052364;28;20048;-53
2022/08/16 13:37:36;;;;;;;2.30;2.10;;;;;;;;;;5052773;28;20033;-52
2022/08/16 13:40:04;;;;;;;3.05;2.00;;;;;;;;;;5053018;28;20021;-54
2022/08/16 13:42:30;;;;;;;3.15;2.25;;;;;;;;;;5052686;28;20036;-49
2022/08/16 13:44:57;;;;;;;3.55;2.55;;;;;;;;;;5052879;28;20404;-49
2022/08/16 13:47:23;;;;;;;3.55;2.30;;;;;;;;;;5052135;28;20021;-55
2022/08/16 13:49:50;;;;;;;7.93;2.70;;;;;;;;;;5052410;28;20035;-57
2022/08/16 13:52:16;;;;;;;8.68;2.05;;;;;;;;;;5052095;28;20068;-54
2022/08/16 13:54:42;;;;;;;5.85;2.00;;;;;;;;;;5052149;28;20028;-53
2022/08/16 13:57:07;;;;;;;10.30;2.50;;;;;;;;;;5052212;28;20027;-45
2022/08/16 13:59:33;;;;;;;4.50;2.50;;;;;;;;;;5052410;28;20045;-48
2022/08/16 14:01:58;;;;;;;4.03;2.10;;;;;;;;;;5052390;28;20029;-45
2022/08/16 14:04:29;;;;;;;4.60;2.30;;;;;;;;;;5052699;28;20029;-47
2022/08/16 14:07:00;;;;;;;6.45;2.33;;;;;;;;;;5052312;28;20025;-44
2022/08/16 14:09:27;;;;;;;3.72;2.10;;;;;;;;;;5052270;28;20423;-46
2022/08/16 14:11:53;;;;;;;4.40;2.10;;;;;;;;;;5034434;28;20044;-46
2022/08/16 14:14:19;;;;;;;12.60;2.53;;;;;;;;;;5052185;28;20025;-46
2022/08/16 14:16:45;;;;;;;5.60;2.45;;;;;;;;;;5052082;28;20033;-45
2022/08/16 14:19:16;;;;;;;5.93;2.58;;;;;;;;;;5052431;28;20028;-49
2022/08/16 14:21:43;;;;;;;6.90;2.20;;;;;;;;;;5051468;28;20491;-46
2022/08/16 14:24:08;;;;;;;4.35;2.60;;;;;;;;;;5051381;28;20028;-50
2022/08/16 14:26:34;;;;;;;2.80;2.10;;;;;;;;;;5051870;28;20550;-51
2022/08/16 14:29:00;;;;;;;2.78;2.28;;;;;;;;;;5051863;28;20035;-45
2022/08/16 14:31:26;;;;;;;5.85;2.35;;;;;;;;;;5051694;28;20029;-49
2022/08/16 14:33:52;;;;;;;7.68;4.57;;;;;;;;;;5052049;28;20383;-47
2022/08/16 14:36:17;;;;;;;8.57;4.40;;;;;;;;;;5051502;28;20056;-51
2022/08/16 14:38:43;;;;;;;2.10;2.00;;;;;;;;;;5051997;28;20041;-48
2022/08/16 14:41:08;;;;;;;7.82;2.63;;;;;;;;;;5051833;28;20132;-47
2022/08/16 14:43:34;;;;;;;2.90;2.25;;;;;;;;;;5051073;28;20422;-48